Time;durP1;ratioP1;P1;durP2;ratioP2;P2;SDS_P1;SDS_P2;PMS_P1;PMS_P2;Temp;Humidity;BMP_temperature;BMP_pressure;BME280_temperature;BME280_humidity;BME280_pressure;Samples;Min_cycle;Max_cycle;Signal;HPM_P1;HPM_P2
2024/01/10 00:00:14;;;;;;;13.23;7.03;;;-1.00;55.90;;;;;;5063253;28;20482;-61
2024/01/10 00:02:43;;;;;;;12.60;7.20;;;-1.00;56.00;;;;;;5065893;28;20411;-61
2024/01/10 00:05:12;;;;;;;14.77;7.70;;;-1.00;56.00;;;;;;5058372;28;20044;-60
2024/01/10 00:07:39;;;;;;;13.70;7.25;;;-1.00;56.10;;;;;;5055998;28;20490;-61
2024/01/10 00:10:06;;;;;;;13.20;7.20;;;-1.00;56.10;;;;;;5063276;28;20063;-60
2024/01/10 00:12:36;;;;;;;12.07;7.50;;;-1.00;56.10;;;;;;5058250;28;20046;-60
2024/01/10 00:15:04;;;;;;;14.55;8.43;;;-1.00;56.10;;;;;;5046305;28;20535;-60
2024/01/10 00:17:31;;;;;;;13.48;6.97;;;-1.00;56.10;;;;;;5057693;28;20029;-60
2024/01/10 00:19:58;;;;;;;10.63;6.57;;;-1.00;56.20;;;;;;5046497;28;20071;-59
2024/01/10 00:22:27;;;;;;;9.43;6.30;;;-1.00;56.20;;;;;;5065258;28;20042;-61
2024/01/10 00:24:53;;;;;;;10.60;6.43;;;-1.00;56.20;;;;;;5062881;28;20114;-60
2024/01/10 00:27:20;;;;;;;14.45;7.32;;;-1.00;56.20;;;;;;5034810;28;20036;-60
2024/01/10 00:29:47;;;;;;;13.60;7.38;;;-1.00;56.10;;;;;;5045571;28;20055;-61
2024/01/10 00:32:13;;;;;;;14.60;7.35;;;-1.00;56.10;;;;;;5064342;28;20512;-60
2024/01/10 00:34:41;;;;;;;13.60;7.45;;;-1.00;56.00;;;;;;5065144;28;20040;-60
2024/01/10 00:37:09;;;;;;;13.63;8.35;;;-1.00;56.10;;;;;;5048792;28;20551;-61
2024/01/10 00:39:39;;;;;;;10.65;6.22;;;-1.00;56.10;;;;;;5062095;28;20041;-60
2024/01/10 00:42:06;;;;;;;12.23;7.00;;;-1.00;56.10;;;;;;5061021;28;20045;-60
2024/01/10 00:44:33;;;;;;;9.00;6.82;;;-1.00;56.20;;;;;;5058367;28;20076;-60
2024/01/10 00:47:02;;;;;;;11.25;7.40;;;-1.00;56.20;;;;;;5044344;28;20037;-60
2024/01/10 00:49:29;;;;;;;11.82;6.65;;;-1.00;56.30;;;;;;5051408;28;20067;-60
2024/01/10 00:51:56;;;;;;;12.52;6.78;;;-1.10;56.30;;;;;;5060994;28;20044;-61
2024/01/10 00:54:22;;;;;;;12.98;6.45;;;-1.00;56.40;;;;;;5065091;28;20526;-60
2024/01/10 00:56:52;;;;;;;12.65;7.30;;;-1.10;56.40;;;;;;5058351;28;20045;-61
2024/01/10 00:59:18;;;;;;;13.10;6.53;;;-1.10;56.40;;;;;;5053165;28;20060;-60
2024/01/10 01:01:45;;;;;;;11.73;7.43;;;-1.10;56.40;;;;;;5063681;28;20044;-61
2024/01/10 01:04:12;;;;;;;13.45;6.95;;;-1.10;56.50;;;;;;5063515;28;20049;-60
2024/01/10 01:06:39;;;;;;;14.23;7.65;;;-1.10;56.60;;;;;;5051354;28;20044;-61
2024/01/10 01:09:06;;;;;;;10.95;6.85;;;-1.20;56.60;;;;;;5061905;28;20495;-60
2024/01/10 01:11:33;;;;;;;12.45;7.50;;;-1.20;56.70;;;;;;5047802;28;20044;-60
2024/01/10 01:14:03;;;;;;;12.32;7.35;;;-1.20;56.80;;;;;;5050956;28;20046;-60
2024/01/10 01:16:33;;;;;;;11.45;6.82;;;-1.30;56.80;;;;;;5047461;28;20040;-61
2024/01/10 01:19:06;;;;;;;13.10;7.22;;;-1.30;56.90;;;;;;5052729;28;20045;-60
2024/01/10 01:21:33;;;;;;;14.57;8.82;;;-1.30;57.00;;;;;;5066091;28;20036;-60
2024/01/10 01:24:04;;;;;;;11.15;7.28;;;-1.30;57.10;;;;;;5065710;28;20056;-60
2024/01/10 01:26:31;;;;;;;13.23;8.07;;;-1.40;57.10;;;;;;5054979;28;20546;-60
2024/01/10 01:29:00;;;;;;;13.48;7.32;;;-1.40;57.10;;;;;;5061361;28;20102;-60
2024/01/10 01:31:27;;;;;;;12.57;8.23;;;-1.40;57.20;;;;;;5067323;28;20044;-60
2024/01/10 01:33:56;;;;;;;12.25;7.13;;;-1.40;57.30;;;;;;5065605;28;20040;-60
2024/01/10 01:36:23;;;;;;;12.35;7.32;;;-1.50;57.30;;;;;;5045683;28;20048;-61
2024/01/10 01:38:52;;;;;;;15.50;7.65;;;-1.50;57.40;;;;;;5044898;28;20417;-61
2024/01/10 01:41:19;;;;;;;11.57;7.03;;;-1.50;57.50;;;;;;5065996;28;20040;-59
2024/01/10 01:43:48;;;;;;;12.25;7.10;;;-1.50;57.50;;;;;;5057165;28;20056;-60
2024/01/10 01:46:15;;;;;;;11.10;7.55;;;-1.50;57.60;;;;;;5037311;28;20045;-61
2024/01/10 01:48:42;;;;;;;15.43;8.00;;;-1.60;57.60;;;;;;5052132;28;20059;-61
2024/01/10 01:51:11;;;;;;;15.13;7.97;;;-1.60;57.70;;;;;;5063590;28;20048;-61
2024/01/10 01:53:39;;;;;;;15.43;8.38;;;-1.60;57.80;;;;;;5066543;28;20041;-60
2024/01/10 01:56:09;;;;;;;16.25;8.77;;;-1.70;57.80;;;;;;5063483;28;20095;-61
2024/01/10 01:58:37;;;;;;;13.15;7.63;;;-1.70;57.80;;;;;;5044751;28;20049;-61
2024/01/10 02:01:05;;;;;;;13.77;7.75;;;-1.70;57.90;;;;;;5063545;28;20049;-61
2024/01/10 02:03:33;;;;;;;15.45;8.10;;;-1.70;58.00;;;;;;5066239;28;20605;-61
2024/01/10 02:06:03;;;;;;;16.45;8.23;;;-1.80;58.00;;;;;;5047605;28;20084;-61
2024/01/10 02:08:32;;;;;;;13.68;8.50;;;-1.80;58.10;;;;;;5062818;28;20033;-60
2024/01/10 02:11:02;;;;;;;;;;;-1.80;58.20;;;;;;5063796;28;20068;-61
2024/01/10 02:13:32;;;;;;;10.63;6.60;;;-1.70;58.40;;;;;;5066516;28;20445;-60
2024/01/10 02:16:03;;;;;;;11.85;7.20;;;-1.80;58.00;;;;;;5048933;28;20048;-61
2024/01/10 02:18:29;;;;;;;14.65;7.68;;;-1.80;58.70;;;;;;5052975;28;20492;-60
2024/01/10 02:20:57;;;;;;;11.68;7.78;;;-1.90;58.10;;;;;;5059831;28;20098;-60
2024/01/10 02:23:24;;;;;;;14.80;7.18;;;-1.90;58.10;;;;;;5054372;28;20272;-60
2024/01/10 02:25:51;;;;;;;11.85;7.00;;;-1.90;58.30;;;;;;5062910;28;20048;-60
2024/01/10 02:28:18;;;;;;;14.57;7.10;;;-1.90;58.30;;;;;;5051493;28;20053;-61
2024/01/10 02:30:45;;;;;;;15.07;8.55;;;-2.00;58.30;;;;;;5063460;28;20080;-60
2024/01/10 02:33:12;;;;;;;11.90;7.50;;;-2.00;58.40;;;;;;5063689;28;20049;-61
2024/01/10 02:35:38;;;;;;;15.82;8.35;;;-2.00;58.40;;;;;;5065119;28;20048;-60
2024/01/10 02:38:06;;;;;;;13.60;8.13;;;-2.00;58.50;;;;;;5047796;28;20055;-61
2024/01/10 02:40:33;;;;;;;15.07;8.75;;;-2.00;58.50;;;;;;5061545;28;20453;-60
2024/01/10 02:43:00;;;;;;;12.98;7.32;;;-2.00;58.60;;;;;;5045287;28;20449;-61
2024/01/10 02:45:26;;;;;;;15.80;8.20;;;-2.10;58.60;;;;;;5053949;28;20121;-61
2024/01/10 02:47:58;;;;;;;14.23;8.75;;;-2.10;58.60;;;;;;5049821;28;20037;-61
2024/01/10 02:50:24;;;;;;;13.85;6.57;;;-2.10;58.70;;;;;;5056500;28;20052;-60
2024/01/10 02:52:51;;;;;;;19.27;10.80;;;-2.20;58.70;;;;;;5063760;28;20076;-60
2024/01/10 02:55:18;;;;;;;14.45;8.50;;;-2.10;58.80;;;;;;5063269;28;20519;-61
2024/01/10 02:57:45;;;;;;;17.27;9.75;;;-2.20;58.80;;;;;;5051019;28;20514;-60
2024/01/10 03:00:12;;;;;;;14.43;8.63;;;-2.20;58.80;;;;;;5059545;28;20391;-60
2024/01/10 03:02:39;;;;;;;15.10;8.02;;;-2.20;58.80;;;;;;5064758;28;20106;-61
2024/01/10 03:05:06;;;;;;;14.02;7.95;;;-2.20;58.90;;;;;;5060502;28;20036;-60
2024/01/10 03:07:32;;;;;;;14.02;8.70;;;-2.30;58.90;;;;;;5048841;28;20499;-61
2024/01/10 03:10:01;;;;;;;11.38;7.35;;;-2.30;58.90;;;;;;5059851;28;20094;-60
2024/01/10 03:12:30;;;;;;;8.95;5.40;;;-2.30;58.90;;;;;;5054604;28;20032;-60
2024/01/10 03:14:57;;;;;;;13.48;7.78;;;-2.30;59.10;;;;;;5053993;28;20091;-60
2024/01/10 03:17:26;;;;;;;13.85;8.27;;;-2.30;59.00;;;;;;5049282;28;20039;-61
2024/01/10 03:19:53;;;;;;;13.50;7.57;;;-2.30;59.10;;;;;;5050511;28;20037;-60
2024/01/10 03:22:27;;;;;;;11.35;7.50;;;-2.30;59.10;;;;;;5052796;28;20040;-61
2024/01/10 03:24:54;;;;;;;13.32;7.95;;;-2.30;59.10;;;;;;5061656;28;20098;-61
2024/01/10 03:27:23;;;;;;;15.40;8.50;;;-2.40;59.10;;;;;;5053921;28;20560;-61
2024/01/10 03:29:55;;;;;;;14.75;9.95;;;-2.40;59.10;;;;;;5059141;28;20582;-61
2024/01/10 03:32:29;;;;;;;12.25;7.35;;;-2.40;59.10;;;;;;5053320;28;20047;-61
2024/01/10 03:34:58;;;;;;;12.30;7.18;;;-2.40;59.20;;;;;;5045756;28;20152;-60
2024/01/10 03:37:25;;;;;;;13.60;8.35;;;-2.40;59.30;;;;;;5060221;28;20043;-60
2024/01/10 03:39:51;;;;;;;14.30;8.10;;;-2.40;59.30;;;;;;5043636;28;20588;-60
2024/01/10 03:42:20;;;;;;;10.68;6.85;;;-2.40;59.40;;;;;;5062402;28;20066;-61
2024/01/10 03:44:47;;;;;;;15.52;8.88;;;-2.50;59.30;;;;;;5052050;28;20495;-60
2024/01/10 03:47:14;;;;;;;12.63;7.47;;;-2.50;59.30;;;;;;5057240;28;20056;-61
2024/01/10 03:49:41;;;;;;;14.40;7.45;;;-2.50;59.30;;;;;;5051061;28;20624;-61
2024/01/10 03:52:09;;;;;;;12.60;7.78;;;-2.50;59.40;;;;;;5057757;28;20041;-61
2024/01/10 03:54:36;;;;;;;10.55;7.03;;;-2.50;59.40;;;;;;5063172;28;20044;-60
2024/01/10 03:57:06;;;;;;;13.75;6.75;;;-2.50;59.40;;;;;;5059801;28;20098;-62
2024/01/10 03:59:32;;;;;;;13.85;7.05;;;-2.50;59.50;;;;;;5044118;28;20083;-60
2024/01/10 04:02:01;;;;;;;10.70;6.97;;;-2.50;59.60;;;;;;5059227;28;20388;-61
2024/01/10 04:04:31;;;;;;;12.65;6.57;;;-2.60;59.50;;;;;;5052886;28;20060;-60
2024/01/10 04:06:57;;;;;;;13.40;6.45;;;-2.50;59.60;;;;;;5050250;28;20447;-62
2024/01/10 04:09:29;;;;;;;14.10;6.47;;;-2.50;59.60;;;;;;5060764;28;20048;-61
2024/01/10 04:12:02;;;;;;;11.68;7.10;;;-2.50;59.60;;;;;;5060155;28;20068;-60
2024/01/10 04:14:30;;;;;;;11.02;6.13;;;-2.50;59.50;;;;;;5044782;28;20047;-61
2024/01/10 04:16:58;;;;;;;10.68;6.35;;;-2.60;59.50;;;;;;5056207;28;20422;-60
2024/01/10 04:19:25;;;;;;;11.80;6.80;;;-2.50;59.50;;;;;;5038279;28;20051;-60
2024/01/10 04:21:54;;;;;;;9.95;6.18;;;-2.60;59.50;;;;;;5060050;28;20094;-61
2024/01/10 04:24:21;;;;;;;13.32;6.20;;;-2.50;59.60;;;;;;5061329;28;20087;-60
2024/01/10 04:26:50;;;;;;;10.52;5.95;;;-2.50;59.60;;;;;;5059458;28;20572;-61
2024/01/10 04:29:18;;;;;;;11.68;6.68;;;-2.60;59.50;;;;;;5049657;28;20041;-60
2024/01/10 04:31:45;;;;;;;12.45;6.00;;;-2.50;59.60;;;;;;5043773;28;20072;-61
2024/01/10 04:34:13;;;;;;;10.88;6.32;;;-2.50;59.50;;;;;;5060104;28;20049;-62
2024/01/10 04:36:47;;;;;;;9.25;5.88;;;-2.50;59.50;;;;;;5043490;28;20379;-59
2024/01/10 04:39:16;;;;;;;9.27;5.50;;;-2.50;59.50;;;;;;5059252;28;20057;-58
2024/01/10 04:41:45;;;;;;;9.82;6.47;;;-2.50;59.40;;;;;;5062138;28;20060;-58
2024/01/10 04:44:11;;;;;;;10.60;5.72;;;-2.40;59.50;;;;;;5053349;28;20044;-59
2024/01/10 04:46:45;;;;;;;9.32;6.20;;;-2.40;59.30;;;;;;5054228;28;20051;-58
2024/01/10 04:49:14;;;;;;;13.70;6.95;;;-2.30;59.30;;;;;;5051692;28;20144;-59
2024/01/10 04:51:42;;;;;;;11.50;6.30;;;-2.30;59.30;;;;;;5064454;28;20055;-58
2024/01/10 04:54:09;;;;;;;11.07;6.80;;;-2.30;59.30;;;;;;5059985;28;20048;-59
2024/01/10 04:56:36;;;;;;;12.13;6.47;;;-2.30;59.20;;;;;;5051103;28;20084;-59
2024/01/10 04:59:05;;;;;;;10.50;6.40;;;-2.20;59.20;;;;;;5053383;28;20045;-59
2024/01/10 05:01:32;;;;;;;12.02;6.40;;;-2.20;59.20;;;;;;5054595;28;20483;-59
2024/01/10 05:03:59;;;;;;;11.32;6.32;;;-2.20;59.10;;;;;;5063775;28;20040;-59
2024/01/10 05:06:26;;;;;;;12.20;8.27;;;-2.20;59.10;;;;;;5054549;28;20049;-59
2024/01/10 05:08:57;;;;;;;11.70;7.72;;;-2.10;59.10;;;;;;5082031;22;20071;-60
2024/01/10 05:11:26;;;;;;;13.20;7.38;;;-2.10;59.00;;;;;;5055089;28;20056;-60
2024/01/10 05:13:56;;;;;;;12.10;6.57;;;-2.10;59.00;;;;;;5058638;28;20491;-61
2024/01/10 05:16:23;;;;;;;14.45;6.35;;;-2.10;58.90;;;;;;5062715;28;20144;-60
2024/01/10 05:18:49;;;;;;;15.45;7.20;;;-2.10;58.90;;;;;;5048355;28;20127;-60
2024/01/10 05:21:19;;;;;;;12.30;6.47;;;-2.00;58.90;;;;;;5042033;28;20532;-60
2024/01/10 05:23:55;;;;;;;11.70;6.20;;;-2.00;58.80;;;;;;5043480;28;20051;-60
2024/01/10 05:26:25;;;;;;;13.27;6.57;;;-2.00;58.70;;;;;;5041868;28;20120;-61
2024/01/10 05:28:55;;;;;;;11.05;6.68;;;-2.00;58.60;;;;;;5032635;28;20107;-60
2024/01/10 05:31:24;;;;;;;11.15;6.28;;;-2.00;59.20;;;;;;5042078;28;20133;-60
2024/01/10 05:33:51;;;;;;;13.48;7.07;;;-2.00;58.60;;;;;;5034351;28;20041;-60
2024/01/10 05:36:17;;;;;;;11.95;7.00;;;-2.00;58.50;;;;;;5030016;28;20069;-61
2024/01/10 05:38:44;;;;;;;12.40;6.68;;;-1.90;58.50;;;;;;5038851;28;20076;-60
2024/01/10 05:41:11;;;;;;;9.82;6.75;;;-1.90;58.60;;;;;;5041066;28;20393;-60
2024/01/10 05:43:38;;;;;;;10.38;6.15;;;-1.90;58.60;;;;;;5032905;28;20037;-61
2024/01/10 05:46:04;;;;;;;15.27;7.38;;;-1.90;58.60;;;;;;5035672;28;20048;-60
2024/01/10 05:48:32;;;;;;;11.82;6.88;;;-1.90;58.60;;;;;;5031234;28;20052;-60
2024/01/10 05:50:59;;;;;;;12.13;6.40;;;-1.90;58.50;;;;;;5035610;28;20135;-60
2024/01/10 05:53:25;;;;;;;12.52;6.80;;;-1.90;58.50;;;;;;5032919;28;20589;-60
2024/01/10 05:55:52;;;;;;;14.57;7.57;;;-1.80;58.50;;;;;;5037211;28;20474;-61
2024/01/10 05:58:20;;;;;;;11.57;6.88;;;-1.80;58.40;;;;;;5021989;28;20049;-61
2024/01/10 06:00:47;;;;;;;12.60;6.50;;;-1.80;58.40;;;;;;5032652;28;20050;-60
2024/01/10 06:03:13;;;;;;;14.95;9.32;;;-1.80;58.40;;;;;;5038520;28;20049;-61
2024/01/10 06:05:40;;;;;;;10.95;6.40;;;-1.80;58.40;;;;;;5030943;28;20756;-61
2024/01/10 06:08:07;;;;;;;13.07;6.88;;;-1.80;58.40;;;;;;5028223;28;20121;-61
2024/01/10 06:10:34;;;;;;;16.27;8.13;;;-1.80;58.40;;;;;;5020241;28;20044;-61
2024/01/10 06:13:04;;;;;;;11.00;7.03;;;-1.80;58.40;;;;;;5013754;28;20045;-60
2024/01/10 06:15:31;;;;;;;14.05;7.68;;;-1.80;58.40;;;;;;5025973;28;20057;-61
2024/01/10 06:17:58;;;;;;;17.33;7.95;;;-1.80;58.40;;;;;;5031668;28;20073;-61
2024/01/10 06:20:25;;;;;;;10.98;6.78;;;-1.80;58.40;;;;;;5026212;28;20444;-61
2024/01/10 06:22:54;;;;;;;12.27;7.30;;;-1.80;58.30;;;;;;5027267;28;20138;-61
2024/01/10 06:25:23;;;;;;;11.65;6.13;;;-1.80;58.30;;;;;;5020354;28;20385;-60
2024/01/10 06:27:50;;;;;;;13.60;7.38;;;-1.80;58.30;;;;;;5027007;28;20045;-61
2024/01/10 06:30:16;;;;;;;11.65;7.30;;;-1.80;58.40;;;;;;5032131;28;20133;-60
2024/01/10 06:32:43;;;;;;;16.33;7.85;;;-1.80;58.40;;;;;;5026166;28;20426;-60
2024/01/10 06:35:10;;;;;;;13.20;6.90;;;-1.80;58.40;;;;;;5028900;28;20065;-60
2024/01/10 06:37:38;;;;;;;13.75;7.10;;;-1.80;58.40;;;;;;5029494;28;20053;-61
2024/01/10 06:40:07;;;;;;;10.77;6.68;;;-1.80;58.40;;;;;;5025196;28;20120;-61
2024/01/10 06:42:34;;;;;;;10.38;6.90;;;-1.80;58.50;;;;;;5030852;28;20437;-60
2024/01/10 06:45:00;;;;;;;11.90;7.18;;;-1.80;58.60;;;;;;5019248;28;20457;-61
2024/01/10 06:47:27;;;;;;;12.63;7.32;;;-1.80;58.60;;;;;;5015901;28;20033;-60
2024/01/10 06:49:54;;;;;;;12.85;7.97;;;-1.80;58.60;;;;;;5027365;28;20139;-60
2024/01/10 06:52:21;;;;;;;13.00;7.95;;;-1.80;58.70;;;;;;5030562;28;20052;-61
2024/01/10 06:54:48;;;;;;;12.45;8.00;;;-1.80;59.40;;;;;;5023217;28;20049;-61
2024/01/10 06:57:14;;;;;;;15.40;9.25;;;-1.90;58.70;;;;;;5027528;28;20045;-61
2024/01/10 06:59:41;;;;;;;16.63;9.18;;;-1.90;58.90;;;;;;5020875;28;20125;-60
2024/01/10 07:02:08;;;;;;;18.15;9.50;;;-1.90;58.90;;;;;;5030086;28;20087;-61
2024/01/10 07:04:37;;;;;;;12.70;7.93;;;-1.90;58.90;;;;;;5026184;28;20049;-60
2024/01/10 07:07:05;;;;;;;13.95;7.38;;;-1.90;58.90;;;;;;5024446;28;20120;-61
2024/01/10 07:09:32;;;;;;;15.75;8.18;;;-2.00;58.90;;;;;;5011570;28;20045;-61
2024/01/10 07:11:58;;;;;;;13.82;8.30;;;-2.00;58.80;;;;;;5027850;28;20073;-60
2024/01/10 07:14:25;;;;;;;12.77;7.30;;;-1.90;58.80;;;;;;5025711;28;20427;-60
2024/01/10 07:16:53;;;;;;;15.85;7.95;;;-2.00;58.70;;;;;;5031434;28;20044;-60
2024/01/10 07:19:20;;;;;;;11.35;6.93;;;-1.90;58.80;;;;;;5025769;28;20483;-60
2024/01/10 07:21:47;;;;;;;10.80;7.07;;;-1.90;58.80;;;;;;5030261;28;20045;-61
2024/01/10 07:24:13;;;;;;;13.95;7.40;;;-1.90;58.90;;;;;;5030689;28;20072;-61
2024/01/10 07:26:40;;;;;;;16.80;8.98;;;-1.90;58.90;;;;;;5028494;28;20040;-61
2024/01/10 07:29:10;;;;;;;16.25;8.07;;;-1.90;58.90;;;;;;5027338;28;20527;-61
2024/01/10 07:31:37;;;;;;;12.27;7.22;;;-1.90;58.80;;;;;;5029398;28;20046;-61
2024/01/10 07:34:04;;;;;;;12.30;7.70;;;-1.90;58.80;;;;;;5026447;28;20099;-61
2024/01/10 07:36:36;;;;;;;15.10;8.32;;;-1.90;58.80;;;;;;5028654;28;20099;-60
2024/01/10 07:39:02;;;;;;;14.90;7.95;;;-1.80;58.80;;;;;;5028625;28;20060;-61
2024/01/10 07:41:30;;;;;;;14.65;8.00;;;-1.80;58.80;;;;;;5029821;28;20116;-60
2024/01/10 07:43:57;;;;;;;16.50;9.57;;;-1.80;58.90;;;;;;5029665;28;20041;-61
2024/01/10 07:46:24;;;;;;;14.75;8.98;;;-1.80;58.80;;;;;;5028147;28;20046;-60
2024/01/10 07:48:51;;;;;;;13.13;8.45;;;-1.80;58.80;;;;;;5025742;28;20546;-60
2024/01/10 07:51:17;;;;;;;17.77;9.00;;;-1.80;58.80;;;;;;5029847;28;20084;-61
2024/01/10 07:53:44;;;;;;;15.38;8.52;;;-1.80;58.70;;;;;;5030229;28;20111;-61
2024/01/10 07:56:12;;;;;;;15.23;7.90;;;-1.80;58.70;;;;;;5029401;28;20119;-61
2024/01/10 07:58:39;;;;;;;16.58;9.25;;;-1.80;58.60;;;;;;5026907;28;20053;-61
2024/01/10 08:01:06;;;;;;;16.02;8.85;;;-1.80;58.60;;;;;;5029649;28;20065;-61
2024/01/10 08:03:33;;;;;;;15.65;9.85;;;-1.70;58.60;;;;;;5029900;28;20054;-61
2024/01/10 08:06:00;;;;;;;18.85;9.90;;;-1.70;58.50;;;;;;5027096;28;20052;-60
2024/01/10 08:08:27;;;;;;;15.10;8.82;;;-1.70;58.40;;;;;;5029305;28;20042;-61
2024/01/10 08:10:56;;;;;;;17.98;9.13;;;-1.70;58.30;;;;;;5029602;28;20083;-61
2024/01/10 08:13:26;;;;;;;17.55;9.30;;;-1.70;58.30;;;;;;5029590;28;20045;-60
2024/01/10 08:15:54;;;;;;;16.42;10.07;;;-1.60;58.40;;;;;;5026121;28;20048;-63
2024/01/10 08:18:21;;;;;;;19.92;11.02;;;-1.60;58.40;;;;;;5028988;28;20042;-60
2024/01/10 08:20:48;;;;;;;19.55;8.48;;;-1.60;58.40;;;;;;5031715;28;20440;-61
2024/01/10 08:23:15;;;;;;;18.23;9.77;;;-1.60;58.40;;;;;;5033996;28;20503;-60
2024/01/10 08:25:43;;;;;;;16.63;10.98;;;-1.50;58.50;;;;;;5032898;28;20038;-61
2024/01/10 08:28:13;;;;;;;21.38;10.65;;;-1.50;58.40;;;;;;5027501;28;20071;-61
2024/01/10 08:30:40;;;;;;;18.23;10.13;;;-1.50;58.40;;;;;;5031272;28;20590;-61
2024/01/10 08:33:07;;;;;;;17.73;10.77;;;-1.50;58.50;;;;;;5033463;28;20048;-60
2024/01/10 08:35:33;;;;;;;21.27;10.95;;;-1.50;58.50;;;;;;5029326;28;20068;-60
2024/01/10 08:38:02;;;;;;;16.17;9.38;;;-1.40;58.50;;;;;;5033194;28;20054;-60
2024/01/10 08:40:29;;;;;;;16.00;9.82;;;-1.40;58.50;;;;;;5032452;28;20412;-60
2024/01/10 08:42:59;;;;;;;14.55;8.70;;;-1.40;58.50;;;;;;5029888;28;20046;-61
2024/01/10 08:45:25;;;;;;;16.55;9.65;;;-1.40;58.40;;;;;;5030280;28;20088;-60
2024/01/10 08:47:53;;;;;;;16.33;9.48;;;-1.40;58.20;;;;;;5028074;28;20045;-61
2024/01/10 08:50:19;;;;;;;16.85;9.25;;;-1.40;58.10;;;;;;5032818;28;20041;-61
2024/01/10 08:52:46;;;;;;;17.90;9.52;;;-1.30;58.20;;;;;;5030465;28;20423;-60
2024/01/10 08:55:14;;;;;;;13.35;8.85;;;-1.30;58.20;;;;;;5032970;28;20049;-61
2024/01/10 08:57:40;;;;;;;15.93;8.63;;;-1.30;58.20;;;;;;5034286;28;20127;-61
2024/01/10 09:00:11;;;;;;;17.52;9.38;;;-1.30;58.20;;;;;;5032721;28;20105;-61
2024/01/10 09:02:38;;;;;;;17.42;9.27;;;-1.30;58.20;;;;;;5032949;28;20120;-61
2024/01/10 09:05:08;;;;;;;14.73;9.57;;;-1.20;58.20;;;;;;5032838;28;20112;-61
2024/01/10 09:07:35;;;;;;;18.50;10.13;;;-1.20;58.10;;;;;;5028209;28;20056;-61
2024/01/10 09:10:04;;;;;;;17.65;10.07;;;-1.20;58.10;;;;;;5034452;28;20625;-61
2024/01/10 09:12:32;;;;;;;21.00;9.45;;;-1.20;58.00;;;;;;5033173;28;20561;-60
2024/01/10 09:14:58;;;;;;;18.38;9.90;;;-1.10;57.90;;;;;;5031686;28;20057;-61
2024/01/10 09:17:25;;;;;;;17.52;10.20;;;-1.10;58.00;;;;;;5030912;28;20045;-61
2024/01/10 09:19:52;;;;;;;18.35;9.65;;;-1.10;57.90;;;;;;5029275;28;20085;-61
2024/01/10 09:22:19;;;;;;;16.10;8.93;;;-1.00;57.90;;;;;;5032320;28;20052;-61
2024/01/10 09:24:45;;;;;;;18.63;10.15;;;-1.00;57.90;;;;;;5032068;28;20649;-61
2024/01/10 09:27:12;;;;;;;16.92;9.05;;;-1.00;57.80;;;;;;5028470;28;20496;-61
2024/01/10 09:29:39;;;;;;;13.88;10.13;;;-1.00;57.70;;;;;;5030960;28;20454;-61
2024/01/10 09:32:06;;;;;;;17.80;9.70;;;-1.00;57.60;;;;;;5029673;28;20037;-60
2024/01/10 09:34:32;;;;;;;19.17;10.55;;;-0.90;58.30;;;;;;5028422;28;20037;-61
2024/01/10 09:36:59;;;;;;;17.33;10.27;;;-0.90;58.30;;;;;;5031263;28;20045;-61
2024/01/10 09:39:28;;;;;;;19.38;9.15;;;-0.90;57.60;;;;;;5028951;28;20045;-61
2024/01/10 09:41:57;;;;;;;20.08;9.45;;;-0.80;57.70;;;;;;5029847;28;20385;-61
2024/01/10 09:44:24;;;;;;;18.42;8.77;;;-0.80;57.50;;;;;;5028897;28;20591;-61
2024/01/10 09:46:55;;;;;;;18.95;9.20;;;-0.80;57.50;;;;;;5031429;28;20030;-61
2024/01/10 09:49:22;;;;;;;15.75;9.30;;;-0.80;57.40;;;;;;5026747;28;20096;-61
2024/01/10 09:51:53;;;;;;;20.70;9.60;;;-0.70;57.40;;;;;;5032855;28;20050;-61
2024/01/10 09:54:25;;;;;;;15.32;9.25;;;-0.70;57.30;;;;;;5030583;28;20084;-62
2024/01/10 09:56:53;;;;;;;16.38;9.52;;;-0.50;57.30;;;;;;5028300;28;20124;-61
2024/01/10 09:59:19;;;;;;;16.45;9.43;;;-0.60;57.30;;;;;;5030282;28;20056;-61
2024/01/10 10:01:46;;;;;;;20.80;10.45;;;-0.60;57.30;;;;;;5031381;28;20050;-61
2024/01/10 10:04:16;;;;;;;20.00;10.15;;;-0.60;57.20;;;;;;5020499;28;20075;-61
2024/01/10 10:06:45;;;;;;;;;;;-0.50;57.20;;;;;;5028178;28;20044;-61
2024/01/10 10:09:13;;;;;;;16.58;8.20;;;-0.50;57.00;;;;;;5027986;28;19931;-61
2024/01/10 10:11:40;;;;;;;16.52;9.40;;;-0.50;57.10;;;;;;5022152;28;20083;-60
2024/01/10 10:14:15;;;;;;;19.27;10.88;;;-0.50;57.00;;;;;;5031055;28;20057;-61
2024/01/10 10:16:42;;;;;;;14.20;8.07;;;-0.50;57.00;;;;;;5027568;28;20115;-60
2024/01/10 10:19:11;;;;;;;16.08;9.82;;;-0.50;57.00;;;;;;5021783;28;20676;-62
2024/01/10 10:21:42;;;;;;;15.13;10.18;;;-0.40;57.00;;;;;;5033403;28;20029;-61
2024/01/10 10:24:10;;;;;;;19.45;9.20;;;-0.40;57.00;;;;;;5032817;28;20045;-61
2024/01/10 10:26:37;;;;;;;18.58;10.73;;;-0.40;57.00;;;;;;5028597;28;20046;-61
2024/01/10 10:29:04;;;;;;;18.08;10.73;;;-0.40;57.60;;;;;;5030559;28;20042;-60
2024/01/10 10:31:32;;;;;;;17.83;9.65;;;-0.30;57.10;;;;;;5030957;28;20042;-61
2024/01/10 10:34:02;;;;;;;17.88;9.93;;;-0.30;57.10;;;;;;5030630;28;20041;-61
2024/01/10 10:36:31;;;;;;;18.75;10.00;;;-0.30;57.00;;;;;;5031753;28;20518;-61
2024/01/10 10:39:03;;;;;;;20.23;11.75;;;-0.30;56.90;;;;;;5030210;28;20042;-61
2024/01/10 10:41:32;;;;;;;17.48;9.25;;;-0.20;56.90;;;;;;5019617;28;20657;-61
2024/01/10 10:43:59;;;;;;;23.10;10.63;;;-0.20;56.80;;;;;;5028898;28;20437;-61
2024/01/10 10:46:28;;;;;;;19.55;10.18;;;-0.20;56.90;;;;;;5028765;28;20037;-61
2024/01/10 10:49:00;;;;;;;17.73;10.52;;;-0.20;56.70;;;;;;5023994;28;20048;-61
2024/01/10 10:51:28;;;;;;;20.50;9.45;;;0.00;56.80;;;;;;5030172;28;20454;-61
2024/01/10 10:53:57;;;;;;;16.25;9.88;;;-0.10;56.70;;;;;;5025322;28;20046;-61
2024/01/10 10:56:24;;;;;;;17.52;9.38;;;-0.10;56.60;;;;;;5024345;28;20038;-61
2024/01/10 10:58:54;;;;;;;16.60;9.25;;;-0.10;56.60;;;;;;5028690;28;20074;-60
2024/01/10 11:01:22;;;;;;;23.73;10.75;;;0.00;56.50;;;;;;5022873;28;20376;-60
2024/01/10 11:03:49;;;;;;;17.10;8.68;;;0.00;56.50;;;;;;5026301;28;20040;-62
2024/01/10 11:06:17;;;;;;;19.30;10.45;;;0.00;56.50;;;;;;5033258;28;20033;-62
2024/01/10 11:08:49;;;;;;;16.55;10.07;;;0.10;56.60;;;;;;5026637;28;20743;-62
2024/01/10 11:11:36;;;;;;;18.00;9.85;;;0.10;56.60;;;;;;5023909;28;20200;-62
2024/01/10 11:14:46;;;;;;;22.77;10.47;;;0.10;56.40;;;;;;5044436;23;20053;31
2024/01/10 11:17:52;;;;;;;15.25;8.32;;;0.10;56.20;;;;;;4982595;28;20139;-57
2024/01/10 11:20:42;;;;;;;20.38;10.73;;;0.20;56.00;;;;;;4983199;28;20050;-56
2024/01/10 11:23:22;;;;;;;14.77;8.80;;;0.20;56.30;;;;;;4983596;28;20118;-59
2024/01/10 11:25:51;;;;;;;18.00;9.55;;;0.20;56.30;;;;;;4980407;28;20049;-59
2024/01/10 11:28:20;;;;;;;20.45;10.77;;;0.30;56.20;;;;;;4984262;28;20046;-59
2024/01/10 11:30:52;;;;;;;16.77;10.30;;;0.30;56.20;;;;;;4985680;28;20122;-59
2024/01/10 11:33:21;;;;;;;20.40;9.10;;;0.30;56.10;;;;;;4989008;28;20069;-59
2024/01/10 11:36:14;;;;;;;18.83;9.48;;;0.40;56.20;;;;;;4982542;28;20057;-58
2024/01/10 11:38:47;;;;;;;14.73;8.45;;;0.50;55.70;;;;;;4986101;28;20046;-58
2024/01/10 11:41:37;;;;;;;16.38;9.30;;;0.50;56.00;;;;;;4988159;28;20046;-59
2024/01/10 11:44:12;;;;;;;17.08;10.40;;;0.50;55.50;;;;;;4981796;28;20046;-57
2024/01/10 11:46:41;;;;;;;17.48;9.88;;;0.60;55.80;;;;;;4985629;28;20105;-59
2024/01/10 11:49:09;;;;;;;17.08;9.90;;;0.60;56.00;;;;;;4980856;28;20038;-58
2024/01/10 11:51:36;;;;;;;15.82;10.07;;;0.80;56.00;;;;;;4989803;28;20416;-57
2024/01/10 11:54:03;;;;;;;19.17;10.32;;;0.70;55.80;;;;;;4986269;28;20449;-59
2024/01/10 11:56:39;;;;;;;16.70;8.95;;;0.70;55.80;;;;;;4988781;28;20046;-58
2024/01/10 11:59:15;;;;;;;18.50;9.60;;;0.80;55.40;;;;;;4988789;28;20529;-58
2024/01/10 12:01:42;;;;;;;16.15;9.52;;;0.80;55.40;;;;;;4984409;28;20104;-58
2024/01/10 12:04:09;;;;;;;16.70;9.75;;;0.80;55.50;;;;;;4988811;28;20038;-58
2024/01/10 12:06:46;;;;;;;14.73;8.80;;;0.90;55.50;;;;;;4988698;28;20077;-58
2024/01/10 12:09:14;;;;;;;15.30;10.05;;;1.00;55.40;;;;;;4980634;28;20122;-58
2024/01/10 12:11:44;;;;;;;18.25;10.10;;;1.00;55.20;;;;;;4987222;28;20061;-57
2024/01/10 12:14:11;;;;;;;17.65;9.50;;;1.10;55.20;;;;;;4989676;28;20050;-58
2024/01/10 12:16:38;;;;;;;16.08;9.88;;;1.10;55.10;;;;;;4990765;28;20121;-58
2024/01/10 12:19:05;;;;;;;16.98;9.30;;;1.10;54.90;;;;;;4987729;28;20050;-58
2024/01/10 12:21:32;;;;;;;16.85;9.60;;;1.20;54.80;;;;;;4985286;28;20094;-57
2024/01/10 12:23:58;;;;;;;18.42;9.27;;;1.20;54.60;;;;;;4992961;28;20039;-58
2024/01/10 12:26:25;;;;;;;15.60;9.50;;;1.30;54.60;;;;;;4989319;28;20045;-58
2024/01/10 12:28:57;;;;;;;19.15;9.55;;;1.40;54.40;;;;;;4992617;28;20045;-58
2024/01/10 12:31:28;;;;;;;14.68;8.88;;;1.40;54.10;;;;;;4986454;28;20039;-58
2024/01/10 12:33:58;;;;;;;19.42;9.20;;;1.40;54.20;;;;;;4988021;28;20046;-58
2024/01/10 12:36:26;;;;;;;15.33;9.57;;;1.40;54.00;;;;;;4989284;28;20113;-58
2024/01/10 12:38:52;;;;;;;19.13;9.90;;;1.50;54.20;;;;;;4987564;28;20328;-58
2024/01/10 12:41:20;;;;;;;20.40;10.73;;;1.50;54.10;;;;;;4990612;28;20055;-58
2024/01/10 12:43:54;;;;;;;16.05;9.52;;;1.50;54.00;;;;;;4987643;28;20038;-58